Time;durP1;ratioP1;P1;durP2;ratioP2;P2;SDS_P1;SDS_P2;PMS_P1;PMS_P2;Temp;Humidity;BMP_temperature;BMP_pressure;BME280_temperature;BME280_humidity;BME280_pressure;Samples;Min_cycle;Max_cycle;Signal;HPM_P1;HPM_P2
2020/12/23 00:01:40;;;;;;;12.38;6.88;;;;;;;0.84;58.54;100632.84;5030157;28;20038;-52
2020/12/23 00:04:06;;;;;;;11.55;7.38;;;;;;;0.88;58.26;100623.09;5029589;28;20052;-55
2020/12/23 00:06:34;;;;;;;10.05;6.75;;;;;;;0.91;58.40;100612.47;5030497;28;20041;-53
2020/12/23 00:09:03;;;;;;;11.35;6.72;;;;;;;0.95;57.97;100609.66;5012217;28;20115;-56
2020/12/23 00:11:28;;;;;;;10.98;6.75;;;;;;;0.97;57.91;100588.53;5012610;28;20128;-56
2020/12/23 00:13:54;;;;;;;13.10;6.45;;;;;;;0.98;57.84;100598.19;5030647;28;20033;-53
2020/12/23 00:16:19;;;;;;;12.38;6.55;;;;;;;1.02;57.92;100601.59;5030521;28;20042;-55
2020/12/23 00:18:44;;;;;;;10.95;7.15;;;;;;;0.56;58.17;100517.63;5029579;28;20213;-55
2020/12/23 00:21:10;;;;;;;13.32;6.82;;;;;;;1.10;57.96;100597.84;5030094;28;20044;-57
2020/12/23 00:23:36;;;;;;;10.77;6.90;;;;;;;1.14;58.00;100598.59;5030741;28;20404;-56
2020/12/23 00:26:01;;;;;;;11.07;6.93;;;;;;;1.08;57.67;100562.72;5030092;28;20037;-56
2020/12/23 00:28:27;;;;;;;12.63;7.18;;;;;;;1.29;57.75;100595.53;5029848;28;20103;-53
2020/12/23 00:30:52;;;;;;;11.60;7.28;;;;;;;1.16;57.70;100544.03;5030283;28;20033;-54
2020/12/23 00:33:18;;;;;;;11.45;6.70;;;;;;;1.32;57.59;100565.53;5028991;28;20033;-52
2020/12/23 00:35:43;;;;;;;12.60;7.05;;;;;;;1.18;57.62;100526.38;5030071;28;20034;-49
2020/12/23 00:38:09;;;;;;;12.45;6.30;;;;;;;1.44;57.35;100559.00;5029675;28;20485;-56
2020/12/23 00:40:34;;;;;;;10.65;6.28;;;;;;;1.43;57.33;100562.56;5031125;28;20128;-52
2020/12/23 00:43:00;;;;;;;10.45;6.50;;;;;;;1.35;57.46;100551.41;5038181;28;20523;-55
2020/12/23 00:45:25;;;;;;;11.27;6.65;;;;;;;1.27;57.28;100541.94;5030361;28;20053;-49
2020/12/23 00:47:51;;;;;;;10.13;6.05;;;;;;;1.36;57.71;100550.47;5029466;28;20034;-55
2020/12/23 00:50:16;;;;;;;10.68;6.65;;;;;;;1.36;57.32;100561.03;5030075;28;20099;-52
2020/12/23 00:52:41;;;;;;;10.15;6.18;;;;;;;1.20;57.49;100532.47;5030499;28;20045;-54
2020/12/23 00:55:07;;;;;;;9.70;6.30;;;;;;;1.28;57.62;100569.19;5029590;28;20496;-54
2020/12/23 00:57:33;;;;;;;10.70;6.32;;;;;;;1.27;57.44;100549.88;5029686;28;20080;-57
2020/12/23 00:59:58;;;;;;;11.38;6.65;;;;;;;1.30;57.80;100540.97;5030133;28;20093;-56
2020/12/23 01:02:24;;;;;;;10.38;6.68;;;;;;;1.22;57.70;100541.22;5030809;28;20041;-55
2020/12/23 01:04:49;;;;;;;10.68;6.20;;;;;;;1.21;57.67;100544.78;5033985;28;20041;-54
2020/12/23 01:07:14;;;;;;;11.68;6.68;;;;;;;1.32;57.75;100552.34;5032796;28;20128;-56
2020/12/23 01:09:40;;;;;;;11.93;7.10;;;;;;;1.33;57.52;100550.56;5033544;28;20033;-52
2020/12/23 01:12:05;;;;;;;12.93;7.28;;;;;;;1.35;57.85;100551.41;5034095;28;20120;-58
2020/12/23 01:14:31;;;;;;;11.80;7.50;;;;;;;1.32;57.76;100540.94;5033845;28;20091;-52
2020/12/23 01:16:56;;;;;;;11.43;7.43;;;;;;;1.44;57.85;100540.53;5032569;28;20120;-52
2020/12/23 01:19:22;;;;;;;12.10;7.32;;;;;;;1.33;57.55;100530.34;5033219;28;20040;-50
2020/12/23 01:21:48;;;;;;;13.98;7.47;;;;;;;1.36;57.83;100545.19;5033348;28;20095;-54
2020/12/23 01:24:13;;;;;;;13.68;7.72;;;;;;;0.97;58.19;100481.31;5032911;28;20048;-54
2020/12/23 01:26:50;;;;;;;;;;;;;;;1.50;57.62;100535.09;5127973;27;20484;-55
2020/12/23 01:29:16;;;;;;;;;;;;;;;1.57;57.11;100525.22;5128439;28;19919;-56
2020/12/23 01:31:42;;;;;;;13.27;7.00;;;;;;;1.46;56.82;100530.81;5127942;28;20264;-54
2020/12/23 01:34:08;;;;;;;15.23;7.13;;;;;;;1.37;57.26;100523.19;5127552;28;20471;-50
2020/12/23 01:36:34;;;;;;;14.88;7.85;;;;;;;1.18;57.74;100496.50;5127725;28;20507;-53
2020/12/23 01:39:00;;;;;;;14.18;7.32;;;;;;;0.45;57.32;100388.84;5127748;28;20049;-50
2020/12/23 01:41:26;;;;;;;13.32;7.68;;;;;;;1.18;57.36;100518.47;5128254;28;20037;-53
2020/12/23 01:43:56;;;;;;;15.82;8.15;;;;;;;1.16;57.70;100517.66;5127744;28;20031;-52
2020/12/23 01:46:33;;;;;;;16.05;8.80;;;;;;;1.21;57.81;100522.78;5127583;28;20531;-53
2020/12/23 01:49:03;;;;;;;15.05;8.35;;;;;;;1.16;57.75;100512.38;5128160;28;20530;-49
2020/12/23 01:51:28;;;;;;;15.10;8.25;;;;;;;1.21;57.69;100514.88;5127629;28;20775;-52
2020/12/23 01:53:55;;;;;;;14.98;8.52;;;;;;;1.12;57.26;100476.47;5128080;28;20085;-55
2020/12/23 01:56:21;;;;;;;15.82;8.85;;;;;;;1.19;57.40;100491.19;5127534;28;20415;-53
2020/12/23 01:58:47;;;;;;;15.75;8.45;;;;;;;1.33;57.79;100506.59;5126896;28;20521;-50
2020/12/23 02:01:18;;;;;;;17.02;9.68;;;;;;;1.00;58.14;100470.66;5127937;28;20040;-54
2020/12/23 02:03:44;;;;;;;15.90;8.93;;;;;;;1.02;58.51;100465.31;5128298;28;20131;-54
2020/12/23 02:06:10;;;;;;;19.17;9.82;;;;;;;0.81;58.88;100443.13;5126973;28;20134;-54
2020/12/23 02:08:35;;;;;;;17.38;9.45;;;;;;;1.19;58.56;100512.28;5127586;28;20031;-50
2020/12/23 02:11:01;;;;;;;18.70;9.07;;;;;;;1.05;58.43;100488.13;5126506;28;20394;-51
2020/12/23 02:13:46;;;;;;;17.05;9.50;;;;;;;0.75;58.59;100441.53;5127552;28;20043;-54
2020/12/23 02:16:13;;;;;;;18.92;8.88;;;;;;;1.07;58.57;100495.06;5127125;28;20051;-56
2020/12/23 02:18:39;;;;;;;21.27;10.10;;;;;;;1.11;58.86;100498.47;5126300;28;20031;-53
2020/12/23 02:21:05;;;;;;;21.15;10.43;;;;;;;0.98;58.84;100477.75;5126899;28;20440;-54
2020/12/23 02:23:30;;;;;;;20.85;10.35;;;;;;;1.01;58.54;100476.78;5122624;28;20023;-56
2020/12/23 02:25:57;;;;;;;21.02;10.00;;;;;;;1.17;58.55;100487.72;5126966;27;20059;-48
2020/12/23 02:28:22;;;;;;;20.70;10.63;;;;;;;1.11;58.53;100493.19;5127749;27;20513;-51
2020/12/23 02:30:57;;;;;;;20.85;10.35;;;;;;;0.94;58.94;100460.28;5127176;28;20529;-55
2020/12/23 02:33:23;;;;;;;22.25;10.52;;;;;;;1.11;58.27;100480.88;5125070;28;20088;-50
2020/12/23 02:35:48;;;;;;;22.98;11.68;;;;;;;1.07;58.53;100486.28;5125302;28;20031;-51
2020/12/23 02:38:14;;;;;;;23.50;12.15;;;;;;;0.96;59.11;100478.72;5113530;28;20043;-56
2020/12/23 02:40:39;;;;;;;23.55;11.80;;;;;;;1.02;59.21;100477.66;5113368;28;20084;-54
2020/12/23 02:43:05;;;;;;;26.15;11.77;;;;;;;1.10;58.91;100486.19;5112894;28;20650;-57
2020/12/23 02:45:30;;;;;;;26.90;12.98;;;;;;;1.03;58.77;100482.88;5113059;28;20032;-52
2020/12/23 02:47:56;;;;;;;23.40;12.00;;;;;;;1.09;58.70;100474.81;5111672;28;20089;-53
2020/12/23 02:50:21;;;;;;;24.02;12.15;;;;;;;1.03;58.36;100474.13;5113354;28;20036;-54
2020/12/23 02:52:47;;;;;;;25.10;12.80;;;;;;;1.02;58.85;100472.41;5112786;28;20054;-53
2020/12/23 02:55:12;;;;;;;30.08;12.55;;;;;;;0.50;58.59;100384.28;5113035;28;20042;-53
2020/12/23 02:57:38;;;;;;;31.02;13.07;;;;;;;0.89;58.78;100456.09;5113201;28;20134;-52
2020/12/23 03:00:05;;;;;;;23.48;12.05;;;;;;;1.03;58.64;100468.84;5112724;28;20036;-51
2020/12/23 03:02:30;;;;;;;22.98;11.55;;;;;;;0.96;58.40;100447.06;5093257;28;20052;-55
2020/12/23 03:04:56;;;;;;;22.08;10.98;;;;;;;0.95;58.47;100442.72;5092131;28;20035;-56
2020/12/23 03:07:21;;;;;;;24.50;12.70;;;;;;;1.14;58.27;100469.34;5092326;28;20399;-53
2020/12/23 03:09:47;;;;;;;27.33;12.55;;;;;;;1.22;57.94;100466.50;5092433;28;20036;-51
2020/12/23 03:12:12;;;;;;;28.00;13.30;;;;;;;1.21;58.42;100472.69;5090722;28;20032;-51
2020/12/23 03:14:38;;;;;;;26.73;13.25;;;;;;;1.21;58.32;100465.66;5092673;28;20028;-54
2020/12/23 03:17:03;;;;;;;22.95;12.50;;;;;;;1.21;58.31;100457.72;5092793;28;20039;-54
2020/12/23 03:19:28;;;;;;;27.75;12.60;;;;;;;1.21;58.40;100463.00;5091542;28;20027;-53
2020/12/23 03:21:54;;;;;;;26.85;14.13;;;;;;;1.13;58.13;100455.31;5091493;28;20507;-51
2020/12/23 03:24:19;;;;;;;25.25;12.52;;;;;;;1.17;58.54;100444.69;5091612;28;20032;-54
2020/12/23 03:26:45;;;;;;;28.52;14.23;;;;;;;1.21;58.09;100451.56;5092420;28;20056;-53
2020/12/23 03:29:10;;;;;;;26.00;12.57;;;;;;;1.25;58.60;100459.34;5091783;28;20068;-50
2020/12/23 03:31:36;;;;;;;29.65;13.65;;;;;;;1.24;57.79;100452.34;5091512;28;20032;-53
2020/12/23 03:34:01;;;;;;;27.55;13.32;;;;;;;1.26;58.18;100449.66;5092298;28;20056;-54
2020/12/23 03:36:27;;;;;;;27.52;13.18;;;;;;;1.29;58.22;100462.72;5091569;28;20032;-51
2020/12/23 03:38:52;;;;;;;25.98;13.32;;;;;;;1.17;58.27;100436.75;5092408;28;20058;-50
2020/12/23 03:41:18;;;;;;;29.52;13.43;;;;;;;1.09;58.03;100416.78;5091260;28;20123;-54
2020/12/23 03:43:43;;;;;;;30.30;14.25;;;;;;;1.21;58.14;100441.03;5091775;28;20407;-52
2020/12/23 03:46:09;;;;;;;30.00;13.77;;;;;;;1.22;58.30;100443.63;5091116;28;20032;-51
2020/12/23 03:48:34;;;;;;;22.98;11.95;;;;;;;1.16;58.13;100443.81;5090629;28;20047;-54
2020/12/23 03:51:00;;;;;;;27.67;13.13;;;;;;;0.63;57.96;100352.31;5092547;28;20043;-56
2020/12/23 03:53:25;;;;;;;29.85;13.00;;;;;;;0.87;58.30;100397.28;5091202;28;20028;-51
2020/12/23 03:55:51;;;;;;;27.80;13.40;;;;;;;1.01;57.96;100437.22;5097554;28;20071;-51
2020/12/23 03:58:16;;;;;;;28.02;13.35;;;;;;;0.98;58.56;100437.34;5111096;28;20035;-53
2020/12/23 04:00:42;;;;;;;28.15;13.43;;;;;;;0.96;58.45;100447.91;5111092;28;20088;-52
2020/12/23 04:03:08;;;;;;;27.67;13.75;;;;;;;0.99;58.38;100444.34;5109810;27;20436;-55
2020/12/23 04:05:33;;;;;;;27.50;13.75;;;;;;;1.02;58.48;100441.59;5111429;28;20075;-53
2020/12/23 04:07:59;;;;;;;23.98;13.32;;;;;;;0.90;58.24;100413.84;5111098;28;20031;-57
2020/12/23 04:10:24;;;;;;;29.00;14.68;;;;;;;0.86;58.28;100414.84;5110837;28;20098;-54
2020/12/23 04:12:50;;;;;;;28.85;13.95;;;;;;;0.69;58.45;100391.66;5111196;28;20079;-54
2020/12/23 04:15:15;;;;;;;26.35;12.52;;;;;;;0.99;58.33;100441.69;5110076;28;20487;-55
2020/12/23 04:17:41;;;;;;;23.75;12.35;;;;;;;0.92;58.36;100435.75;5110882;28;20038;-55
2020/12/23 04:20:07;;;;;;;23.45;12.90;;;;;;;0.86;58.49;100441.22;5111594;28;20035;-52
2020/12/23 04:22:34;;;;;;;26.00;12.50;;;;;;;0.80;58.75;100433.50;5111636;28;20074;-53
2020/12/23 04:25:00;;;;;;;22.75;12.30;;;;;;;0.77;58.69;100434.44;5111144;28;20116;-55
2020/12/23 04:27:28;;;;;;;24.40;12.32;;;;;;;0.59;58.76;100427.06;5110877;28;20043;-52
2020/12/23 04:29:54;;;;;;;23.52;12.20;;;;;;;0.67;59.30;100441.75;5108686;28;20066;-55
2020/12/23 04:32:19;;;;;;;22.35;12.07;;;;;;;0.60;59.08;100442.84;5111405;28;20070;-53
2020/12/23 04:34:45;;;;;;;22.75;12.00;;;;;;;0.56;58.74;100434.16;5111404;28;20027;-53
2020/12/23 04:37:10;;;;;;;22.33;11.95;;;;;;;0.60;58.92;100432.31;5111002;28;20096;-54
2020/12/23 04:39:36;;;;;;;21.83;11.50;;;;;;;0.14;58.45;100348.44;5110504;28;20513;-51
2020/12/23 04:42:02;;;;;;;23.00;11.25;;;;;;;0.50;58.83;100417.69;5109221;28;20032;-54
2020/12/23 04:44:29;;;;;;;18.63;9.57;;;;;;;0.34;58.78;100402.31;5109890;28;20027;-56
2020/12/23 04:46:56;;;;;;;20.23;10.65;;;;;;;0.47;58.88;100441.47;5110537;28;20095;-59
2020/12/23 04:49:22;;;;;;;16.98;9.93;;;;;;;0.51;58.45;100435.22;5110178;28;20035;-57
2020/12/23 04:51:55;;;;;;;20.92;11.57;;;;;;;0.54;58.58;100437.78;5111101;28;20119;-55
2020/12/23 04:54:22;;;;;;;19.65;10.40;;;;;;;0.52;58.35;100429.91;5108951;28;20039;-54
2020/12/23 04:56:49;;;;;;;18.67;9.52;;;;;;;0.49;58.54;100426.50;5110519;28;20035;-51
2020/12/23 04:59:15;;;;;;;18.17;10.18;;;;;;;0.55;58.01;100431.59;5110341;28;20115;-54
2020/12/23 05:01:40;;;;;;;15.82;8.93;;;;;;;0.59;57.57;100433.22;5111115;28;20115;-53
2020/12/23 05:04:06;;;;;;;20.90;10.35;;;;;;;0.58;57.69;100426.22;5110378;28;20036;-54
2020/12/23 05:06:35;;;;;;;17.23;9.80;;;;;;;0.48;57.88;100419.47;5108319;28;20569;-55
2020/12/23 05:09:03;;;;;;;19.08;10.48;;;;;;;0.53;57.64;100438.69;5109913;28;20486;-54
2020/12/23 05:11:31;;;;;;;17.80;9.55;;;;;;;0.28;57.21;100405.16;5108825;28;20497;-57
2020/12/23 05:13:57;;;;;;;16.63;8.80;;;;;;;0.35;57.43;100411.94;5110025;28;20504;-56
2020/12/23 05:16:24;;;;;;;15.95;9.02;;;;;;;0.31;57.42;100439.28;5109928;28;20032;-54
2020/12/23 05:18:55;;;;;;;16.58;8.85;;;;;;;0.28;57.10;100440.22;5108178;28;20059;-53
2020/12/23 05:21:23;;;;;;;15.50;8.40;;;;;;;0.22;57.65;100429.88;5109911;28;20035;-53
2020/12/23 05:23:49;;;;;;;15.93;8.68;;;;;;;0.23;57.10;100430.72;5109445;28;20062;-53
2020/12/23 05:26:15;;;;;;;15.20;8.23;;;;;;;0.21;57.04;100427.28;5110085;28;20090;-57
2020/12/23 05:28:44;;;;;;;15.93;8.38;;;;;;;0.18;56.94;100436.13;5110128;28;20054;-56
2020/12/23 05:31:13;;;;;;;14.80;8.50;;;;;;;0.13;56.91;100433.63;5108380;28;20055;-53
2020/12/23 05:33:44;;;;;;;15.98;8.65;;;;;;;-0.16;56.82;100385.28;5109597;28;20035;-56
2020/12/23 05:36:15;;;;;;;17.58;8.80;;;;;;;0.07;56.63;100409.22;5109958;28;20034;-55
2020/12/23 05:38:41;;;;;;;16.63;8.68;;;;;;;0.16;56.82;100429.19;5110585;28;20050;-56
2020/12/23 05:41:09;;;;;;;14.40;8.13;;;;;;;0.12;57.16;100425.75;5104739;28;20114;-56
2020/12/23 05:43:34;;;;;;;15.65;8.43;;;;;;;0.10;56.68;100428.44;5089483;28;20097;-56
2020/12/23 05:46:04;;;;;;;15.82;9.45;;;;;;;0.05;56.80;100408.41;5089634;28;20345;-57
2020/12/23 05:48:34;;;;;;;14.82;7.93;;;;;;;0.13;56.67;100432.78;5100468;28;20089;-59
2020/12/23 05:51:01;;;;;;;13.35;8.13;;;;;;;0.11;56.73;100438.06;5109301;28;20383;-56
2020/12/23 05:53:28;;;;;;;16.38;8.52;;;;;;;0.14;57.00;100432.72;5110357;28;20035;-54
2020/12/23 05:55:54;;;;;;;13.23;7.72;;;;;;;0.16;56.90;100429.19;5109532;28;20372;-56
2020/12/23 05:58:28;;;;;;;14.25;8.10;;;;;;;0.22;56.70;100432.50;5107810;28;20398;-56
2020/12/23 06:00:55;;;;;;;16.85;8.38;;;;;;;0.30;56.96;100432.28;5110293;28;20054;-56
2020/12/23 06:03:51;;;;;;;14.15;8.10;;;;;;;0.37;56.69;100425.94;5110042;28;20040;-58
2020/12/23 06:06:28;;;;;;;15.57;8.77;;;;;;;0.24;56.51;100408.75;5109522;28;20289;-59
2020/12/23 06:08:58;;;;;;;15.45;8.13;;;;;;;0.34;56.42;100438.31;5108836;28;20040;-59
2020/12/23 06:11:24;;;;;;;18.25;8.55;;;;;;;0.28;56.50;100418.31;5092442;28;20542;-58
2020/12/23 06:14:22;;;;;;;13.45;7.85;;;;;;;0.22;56.82;100426.38;5093333;28;20126;-57
2020/12/23 06:16:49;;;;;;;15.45;7.53;;;;;;;0.18;56.37;100432.63;5093278;28;20067;-57
2020/12/23 06:19:27;;;;;;;14.45;7.80;;;;;;;0.05;56.64;100432.97;5094019;28;20036;-56
2020/12/23 06:21:54;;;;;;;13.63;7.35;;;;;;;-0.04;56.26;100427.94;5094117;28;20089;-58
2020/12/23 06:24:21;;;;;;;12.35;6.78;;;;;;;-0.16;56.59;100437.91;5093341;28;20047;-54
2020/12/23 06:26:50;;;;;;;12.95;7.45;;;;;;;-0.29;56.72;100441.75;5093538;28;20055;-60
2020/12/23 06:29:18;;;;;;;12.52;6.75;;;;;;;-0.46;57.16;100450.97;5093739;28;20101;-55
2020/12/23 06:31:49;;;;;;;11.95;7.13;;;;;;;-0.42;57.12;100450.88;5092954;28;20078;-57
2020/12/23 06:34:40;;;;;;;15.10;8.40;;;;;;;-0.49;57.18;100418.59;5093934;28;20028;-60
2020/12/23 06:37:19;;;;;;;14.57;7.95;;;;;;;-0.32;57.17;100441.84;5090745;28;20052;-60
2020/12/23 06:39:46;;;;;;;14.82;8.15;;;;;;;-0.24;57.14;100450.41;5092375;28;20059;-54
2020/12/23 06:42:11;;;;;;;13.05;7.40;;;;;;;-0.12;56.84;100453.63;5090513;28;20032;-60
2020/12/23 06:44:43;;;;;;;13.77;7.82;;;;;;;-0.07;56.87;100449.97;5108697;28;20851;-57
2020/12/23 06:47:16;;;;;;;16.27;7.88;;;;;;;-0.04;56.75;100441.97;5111364;28;20035;-60
2020/12/23 06:49:51;;;;;;;15.82;7.63;;;;;;;-0.04;56.49;100433.22;5111408;28;20525;-58
2020/12/23 06:52:23;;;;;;;;;;;;;;;0.12;56.20;100439.78;5093386;28;20036;-57
2020/12/23 06:54:52;;;;;;;14.40;7.38;;;;;;;0.03;55.82;100434.78;5094538;28;19912;-57
2020/12/23 06:57:38;;;;;;;16.92;8.05;;;;;;;0.02;56.36;100437.44;5093214;28;20089;-59
2020/12/23 07:00:27;;;;;;;15.30;7.90;;;;;;;0.13;56.21;100440.69;5092833;28;20051;-57
2020/12/23 07:03:04;;;;;;;14.30;7.93;;;;;;;0.21;55.43;100429.91;5092661;28;20036;-55
2020/12/23 07:05:40;;;;;;;17.17;8.27;;;;;;;0.28;55.36;100424.44;5093034;28;20040;-61
2020/12/23 07:08:08;;;;;;;15.95;8.45;;;;;;;0.33;55.14;100418.16;5092505;28;20388;-60
2020/12/23 07:10:35;;;;;;;15.35;8.07;;;;;;;0.51;54.99;100441.34;5092011;28;20036;-61
2020/12/23 07:13:13;;;;;;;15.32;8.25;;;;;;;0.42;54.58;100420.56;5090971;28;20035;-61
2020/12/23 07:15:50;;;;;;;14.73;8.02;;;;;;;0.65;54.36;100430.41;5093162;28;20201;-60
2020/12/23 07:18:17;;;;;;;14.60;8.10;;;;;;;0.52;54.13;100414.09;5091198;28;20048;-60
2020/12/23 07:20:51;;;;;;;15.07;7.63;;;;;;;0.68;53.64;100429.47;5091958;28;20028;-59
2020/12/23 07:23:19;;;;;;;13.30;7.70;;;;;;;0.83;53.91;100428.13;5092373;28;20039;-59
2020/12/23 07:25:47;;;;;;;17.48;8.15;;;;;;;1.20;52.48;100442.78;5102962;28;20134;-60
2020/12/23 07:28:16;;;;;;;14.65;8.13;;;;;;;1.39;52.19;100443.06;5112378;28;20043;-60
2020/12/23 07:30:42;;;;;;;16.42;8.13;;;;;;;1.35;52.11;100427.38;5110814;28;20039;-60
2020/12/23 07:33:12;;;;;;;13.85;8.43;;;;;;;1.34;52.43;100433.56;5112381;28;20035;-62
2020/12/23 07:35:39;;;;;;;15.57;8.60;;;;;;;1.50;51.55;100441.84;5109899;28;20019;-61
2020/12/23 07:38:06;;;;;;;12.98;7.43;;;;;;;1.13;51.01;100370.94;5111993;28;20039;-59
2020/12/23 07:40:34;;;;;;;17.95;9.13;;;;;;;1.50;51.86;100449.75;5112421;28;20046;-62
2020/12/23 07:43:00;;;;;;;16.88;8.82;;;;;;;1.46;51.65;100446.38;5112060;28;20051;-61
2020/12/23 07:45:27;;;;;;;17.88;8.10;;;;;;;1.04;51.31;100359.81;5114613;27;20039;-61
2020/12/23 07:48:00;;;;;;;18.77;9.18;;;;;;;1.45;51.26;100455.22;5121370;27;20069;-61
2020/12/23 07:50:28;;;;;;;15.82;8.13;;;;;;;0.97;51.52;100385.50;5119478;27;20031;-57
2020/12/23 07:52:54;;;;;;;16.58;7.75;;;;;;;1.14;51.58;100429.78;5123344;27;20031;-60
2020/12/23 07:55:24;;;;;;;13.45;7.55;;;;;;;1.12;51.11;100442.19;5113661;27;20036;-61
2020/12/23 07:57:52;;;;;;;15.48;8.93;;;;;;;1.08;51.30;100449.31;5109362;28;20035;-60
2020/12/23 08:00:18;;;;;;;14.57;8.32;;;;;;;0.99;51.43;100439.06;5108970;27;20096;-63
2020/12/23 08:02:44;;;;;;;16.80;8.40;;;;;;;0.93;51.59;100448.00;5119669;27;20058;-62
2020/12/23 08:05:12;;;;;;;16.48;7.80;;;;;;;0.89;51.80;100438.47;5126532;27;20482;-61
2020/12/23 08:07:41;;;;;;;19.92;8.77;;;;;;;0.94;51.00;100440.97;5113086;27;20471;-60
2020/12/23 08:10:08;;;;;;;14.98;8.07;;;;;;;0.94;51.33;100417.25;5114333;27;20047;-62
2020/12/23 08:12:35;;;;;;;14.98;7.78;;;;;;;0.97;51.00;100423.31;5120490;27;20517;-59
2020/12/23 08:15:00;;;;;;;16.48;7.82;;;;;;;0.85;50.70;100402.56;5116564;27;20483;-60
2020/12/23 08:17:27;;;;;;;13.68;7.72;;;;;;;1.07;50.52;100423.84;5119382;27;20077;-63
2020/12/23 08:20:07;;;;;;;13.68;7.90;;;;;;;0.83;50.39;100373.59;5118942;27;20506;-62
2020/12/23 08:22:34;;;;;;;14.02;7.90;;;;;;;1.18;50.42;100428.78;5120374;27;20024;-60
2020/12/23 08:25:04;;;;;;;13.82;6.90;;;;;;;1.09;50.40;100397.44;5125361;27;20487;-62
2020/12/23 08:27:30;;;;;;;14.05;7.60;;;;;;;0.88;50.16;100362.94;5111007;27;20033;-61
2020/12/23 08:29:57;;;;;;;14.40;7.22;;;;;;;1.11;49.94;100419.34;5116280;27;20118;-55
2020/12/23 08:32:33;;;;;;;13.65;6.72;;;;;;;0.92;49.64;100412.00;5122140;27;20031;-68
2020/12/23 08:35:00;;;;;;;14.48;6.22;;;;;;;0.96;49.44;100429.47;5125386;27;20027;-61
2020/12/23 08:37:27;;;;;;;13.32;6.63;;;;;;;0.94;49.82;100433.91;5113591;27;20040;-63
2020/12/23 08:39:55;;;;;;;11.45;6.50;;;;;;;0.94;49.88;100423.38;5098181;27;20122;-60
2020/12/23 08:42:22;;;;;;;10.95;6.15;;;;;;;0.95;49.95;100414.53;5121256;27;20035;-62
2020/12/23 08:44:52;;;;;;;14.02;6.88;;;;;;;1.03;49.95;100410.84;5131444;27;20035;-62
2020/12/23 08:47:23;;;;;;;10.45;6.10;;;;;;;1.10;49.81;100410.59;5128917;27;20035;-61
2020/12/23 08:49:49;;;;;;;14.18;6.72;;;;;;;1.11;50.18;100424.63;5112698;27;20035;-63
2020/12/23 08:52:18;;;;;;;11.73;6.20;;;;;;;1.01;49.63;100408.22;5122966;27;20050;-57
2020/12/23 08:54:44;;;;;;;11.73;5.75;;;;;;;0.97;49.57;100420.66;5123023;27;20490;-65
2020/12/23 08:57:14;;;;;;;15.05;6.22;;;;;;;1.02;49.96;100411.75;5113250;27;20478;-60
2020/12/23 08:59:40;;;;;;;10.85;6.07;;;;;;;1.07;49.58;100404.53;5124068;27;20109;-62
2020/12/23 09:02:16;;;;;;;13.75;5.82;;;;;;;0.98;49.27;100411.84;5123732;27;20040;-52
2020/12/23 09:04:42;;;;;;;13.02;5.65;;;;;;;0.95;49.68;100392.59;5109602;28;20028;-60
2020/12/23 09:07:08;;;;;;;9.10;4.60;;;;;;;0.78;49.56;100390.50;5121495;27;20032;-65
2020/12/23 09:09:34;;;;;;;12.60;5.97;;;;;;;0.63;49.18;100383.94;5108073;27;20547;-63
2020/12/23 09:12:01;;;;;;;13.73;6.07;;;;;;;0.23;50.21;100354.34;5109523;27;20052;-62
2020/12/23 09:14:37;;;;;;;12.40;5.47;;;;;;;0.49;50.06;100379.94;5107010;27;20185;-62
2020/12/23 09:17:29;;;;;;;11.73;5.57;;;;;;;0.59;49.68;100375.25;5105912;28;20043;-54
2020/12/23 09:20:01;;;;;;;11.25;5.75;;;;;;;0.60;50.27;100384.88;5104654;28;20384;-62
2020/12/23 09:22:43;;;;;;;9.98;5.43;;;;;;;0.63;49.63;100389.22;5106924;28;20047;-60
2020/12/23 09:25:25;;;;;;;9.75;5.22;;;;;;;0.49;49.60;100347.47;5108996;28;20043;-57
2020/12/23 09:27:55;;;;;;;9.57;5.40;;;;;;;0.48;49.84;100350.97;5109597;28;20182;-57
2020/12/23 09:30:37;;;;;;;11.05;5.90;;;;;;;0.66;49.99;100379.41;5108931;28;20057;-63
2020/12/23 09:33:04;;;;;;;9.48;5.32;;;;;;;0.69;49.87;100376.69;5103478;28;20023;-57
2020/12/23 09:35:30;;;;;;;11.52;5.55;;;;;;;0.62;49.79;100387.47;5121687;27;20065;-63
2020/12/23 09:38:18;;;;;;;10.60;5.28;;;;;;;0.57;49.79;100377.06;5122108;28;20027;-61
2020/12/23 09:41:07;;;;;;;9.65;4.80;;;;;;;0.59;50.01;100380.53;5111111;27;20470;-62
2020/12/23 09:43:34;;;;;;;9.27;5.40;;;;;;;0.45;49.84;100346.69;5092218;28;20081;-64
2020/12/23 09:46:05;;;;;;;9.60;5.07;;;;;;;0.60;49.80;100376.97;5108263;28;20168;-64
2020/12/23 09:48:31;;;;;;;9.10;5.00;;;;;;;0.41;49.92;100355.59;5109831;27;20403;-66
2020/12/23 09:50:57;;;;;;;14.27;5.25;;;;;;;0.13;49.96;100332.72;5127785;27;20083;-67
2020/12/23 09:53:23;;;;;;;15.90;5.55;;;;;;;-0.32;50.25;100276.06;5120537;27;20027;-53
2020/12/23 09:55:49;;;;;;;9.57;5.55;;;;;;;0.07;50.49;100349.53;5122404;27;20144;-64
2020/12/23 09:58:15;;;;;;;8.98;4.78;;;;;;;0.14;50.85;100342.34;5127216;27;20061;-64
2020/12/23 10:00:42;;;;;;;12.02;5.07;;;;;;;0.31;50.07;100349.75;5115921;27;20043;-65
2020/12/23 10:03:08;;;;;;;11.60;5.18;;;;;;;0.18;50.49;100353.63;5120436;27;20023;-62
2020/12/23 10:05:35;;;;;;;8.70;5.22;;;;;;;0.18;50.47;100345.72;5115766;27;20418;-63
2020/12/23 10:08:01;;;;;;;11.93;5.50;;;;;;;0.16;50.43;100355.44;5126517;27;20134;-59
2020/12/23 10:10:27;;;;;;;13.80;6.35;;;;;;;0.02;50.36;100332.16;5120665;27;20470;-67
2020/12/23 10:12:52;;;;;;;11.52;5.47;;;;;;;0.18;50.37;100351.00;5100040;27;20038;-64
2020/12/23 10:15:18;;;;;;;11.52;4.72;;;;;;;0.17;50.43;100351.91;5125941;27;20080;-62
2020/12/23 10:17:44;;;;;;;8.65;4.72;;;;;;;0.02;50.42;100333.03;5123880;27;20065;-61
2020/12/23 10:20:09;;;;;;;9.55;5.07;;;;;;;0.11;50.53;100352.94;5112838;27;20077;-63
2020/12/23 10:22:36;;;;;;;8.70;4.57;;;;;;;-0.03;50.97;100329.63;5126513;27;20031;-62
2020/12/23 10:25:03;;;;;;;9.98;4.70;;;;;;;0.11;50.63;100345.91;5116168;27;20512;-62
2020/12/23 10:27:29;;;;;;;10.23;5.00;;;;;;;0.05;51.11;100340.84;5124735;27;20474;-66
2020/12/23 10:29:55;;;;;;;15.15;5.22;;;;;;;-0.04;50.97;100344.59;5124654;27;20031;-64
2020/12/23 10:32:20;;;;;;;10.02;4.78;;;;;;;0.01;50.98;100348.84;5126122;27;20039;-66
2020/12/23 10:34:46;;;;;;;9.95;4.55;;;;;;;-0.01;51.38;100346.25;5115827;27;20038;-64
2020/12/23 10:37:12;;;;;;;8.35;5.07;;;;;;;-0.42;51.33;100264.94;5127221;27;20471;-61
2020/12/23 10:39:38;;;;;;;8.70;4.40;;;;;;;-0.75;50.67;100205.34;5122965;27;20080;-61
2020/12/23 10:42:03;;;;;;;10.85;4.93;;;;;;;-0.51;51.14;100242.38;5119408;27;20043;-60
2020/12/23 10:44:29;;;;;;;7.70;4.15;;;;;;;-0.09;51.08;100325.44;5129467;27;20570;-61
2020/12/23 10:46:58;;;;;;;8.10;4.30;;;;;;;-0.06;51.29;100329.72;5116741;27;20042;-67
2020/12/23 10:49:25;;;;;;;8.90;4.38;;;;;;;-0.13;51.48;100317.66;5125797;27;20039;-66
2020/12/23 10:51:52;;;;;;;7.78;4.40;;;;;;;-0.04;51.64;100314.75;5124028;27;20035;-67
2020/12/23 10:54:18;;;;;;;7.78;4.30;;;;;;;-0.06;50.98;100313.94;5108427;27;20032;-60
2020/12/23 10:56:44;;;;;;;6.90;4.35;;;;;;;-0.21;51.78;100287.16;5106433;27;20404;-61
2020/12/23 10:59:09;;;;;;;8.52;4.28;;;;;;;-0.10;51.34;100301.78;5126566;27;20448;-58
2020/12/23 11:01:35;;;;;;;11.77;4.65;;;;;;;-0.27;51.48;100284.69;5121576;27;20440;-59
2020/12/23 11:04:00;;;;;;;10.93;5.05;;;;;;;-0.14;51.56;100306.25;5119548;27;20460;-58
2020/12/23 11:06:26;;;;;;;8.48;4.80;;;;;;;-0.05;51.82;100313.03;5119855;27;20043;-62
2020/12/23 11:08:51;;;;;;;9.10;4.45;;;;;;;0.01;51.54;100323.41;5131076;27;20607;-62
2020/12/23 11:11:17;;;;;;;8.65;4.40;;;;;;;-0.15;51.59;100294.88;5125808;27;20032;-62
2020/12/23 11:13:43;;;;;;;10.90;5.10;;;;;;;-0.72;51.61;100217.56;5122323;27;20031;-62
2020/12/23 11:16:16;;;;;;;9.27;5.07;;;;;;;-0.24;51.85;100295.16;5118608;27;20112;-64
2020/12/23 11:18:42;;;;;;;7.28;4.00;;;;;;;-0.16;51.84;100293.16;5104583;27;20088;-63
2020/12/23 11:21:10;;;;;;;8.52;4.97;;;;;;;-0.35;51.95;100281.41;5116170;27;20031;-61
2020/12/23 11:23:36;;;;;;;8.90;4.85;;;;;;;-0.28;51.97;100295.28;5121610;27;20035;-63
2020/12/23 11:26:02;;;;;;;7.95;4.65;;;;;;;-0.26;51.65;100306.63;5124982;27;20059;-61
2020/12/23 11:28:31;;;;;;;9.35;4.95;;;;;;;-0.67;51.85;100222.69;5113793;27;20509;-62